^^
Grace C. Lehan Memorial Weather Station Historical Data
Daily Summary for May 1, 2021 Units:  Metric    English   Both
Daily Weekly Monthly Yearly
  High: Low: Average:
Temperature: 21 °C 16.4 °C 19.2 °C
Dew Point: 18.5 °C 15.9 °C 17.8 °C
Humidity: 97% 81.1% 92%
Wind Speed: 12.4km/h 0km/h 1.6km/h
Wind Gust: 32.2km/h - -
Wind- - SE
Pressure: 1010.4 hPa 1002.3 hPa -
Precipitation: 102.87 mm    
 
 
Tabular Data for May 1, 2021
Time Temperature Dew Point Pressure Wind Wind Speed Wind Gust Humidity Rainfall Rate (Hourly) solar
00:04 21 °C 17.8 °C 1007.3 hPa Calm     82% 0 mm 0 W/m2
00:09 20.9 °C 17.6 °C 1007.3 hPa Calm     81.2% 0 mm 0 W/m2
00:14 20.9 °C 17.6 °C 1007.3 hPa Calm     81.1% 0 mm 0 W/m2
00:19 20.9 °C 17.6 °C 1007.7 hPa Calm     81.3% 0 mm 0 W/m2
00:24 20.9 °C 17.7 °C 1007.7 hPa Calm     81.6% 0 mm 0 W/m2
00:29 20.9 °C 17.7 °C 1007.7 hPa Calm     81.8% 0 mm 0 W/m2
00:34 20.9 °C 17.8 °C 1007.7 hPa Calm     82% 0 mm 0 W/m2
00:39 20.9 °C 17.8 °C 1007.7 hPa Calm     82% 0 mm 0 W/m2
00:44 20.9 °C 17.7 °C 1007.7 hPa Calm     82% 0 mm 0 W/m2
00:49 20.9 °C 17.7 °C 1007.7 hPa Calm     82% 0 mm 0 W/m2
00:54 20.8 °C 17.7 °C 1007.7 hPa Calm     82% 0 mm 0 W/m2
00:59 20.8 °C 17.7 °C 1007.7 hPa Calm     82.6% 0 mm 0 W/m2
01:04 20.7 °C 17.7 °C 1007.7 hPa Calm     83% 0 mm 0 W/m2
01:09 20.7 °C 17.7 °C 1007.7 hPa Calm     83% 0 mm 0 W/m2
01:14 20.6 °C 17.7 °C 1007.7 hPa Calm     83% 0 mm 0 W/m2
01:19 20.6 °C 17.6 °C 1007.7 hPa Calm     83% 0 mm 0 W/m2
01:24 20.6 °C 17.6 °C 1007.7 hPa Calm     83% 0 mm 0 W/m2
01:29 20.6 °C 17.6 °C 1007.3 hPa Calm     83% 0 mm 0 W/m2
01:34 20.6 °C 17.6 °C 1007.7 hPa Calm     83.3% 0 mm 0 W/m2
01:39 20.6 °C 17.7 °C 1007.7 hPa Calm     83.7% 0 mm 0 W/m2
01:44 20.6 °C 17.8 °C 1007.3 hPa Calm     84% 0 mm 0 W/m2
01:49 20.5 °C 17.7 °C 1007.3 hPa Calm     84% 0 mm 0 W/m2
01:54 20.4 °C 17.7 °C 1007.3 hPa Calm     84% 0 mm 0 W/m2
01:59 20.4 °C 17.6 °C 1007.3 hPa Calm     84% 0 mm 0 W/m2
02:04 20.4 °C 17.6 °C 1007.3 hPa Calm     84% 0 mm 0 W/m2
02:09 20.3 °C 17.7 °C 1007.7 hPa Calm     85% 0 mm 0 W/m2
02:14 20.3 °C 17.7 °C 1007.3 hPa Calm     85% 0 mm 0 W/m2
02:19 20.3 °C 17.9 °C 1007.7 hPa Calm     86% 0 mm 0 W/m2
02:24 20.3 °C 17.8 °C 1007.7 hPa Calm     86% 0 mm 0 W/m2
02:29 20.2 °C 17.8 °C 1007.7 hPa Calm     86% 0 mm 0 W/m2
02:34 20.2 °C 17.8 °C 1007.7 hPa Calm     86% 0 mm 0 W/m2
02:39 20.2 °C 17.8 °C 1007.7 hPa Calm     86% 0 mm 0 W/m2
02:44 20.3 °C 17.8 °C 1007.7 hPa Calm     86% 0 mm 0 W/m2
02:49 20.3 °C 17.9 °C 1007.7 hPa Calm     86% 0 mm 0 W/m2
02:54 20.3 °C 17.9 °C 1007.7 hPa Calm     86% 0 mm 0 W/m2
02:59 20.4 °C 17.9 °C 1007.7 hPa Calm     86% 0 mm 0 W/m2
03:04 20.4 °C 18 °C 1007.7 hPa Calm     86% 0 mm 0 W/m2
03:09 20.4 °C 18 °C 1007.7 hPa Calm     86% 0 mm 0 W/m2
03:14 20.4 °C 18 °C 1007.7 hPa Calm     86% 0 mm 0 W/m2
03:19 20.4 °C 18 °C 1007.7 hPa Calm     86% 0 mm 0 W/m2
03:24 20.4 °C 18 °C 1007.7 hPa Calm     86% 0 mm 0 W/m2
03:29 20.4 °C 17.9 °C 1007.7 hPa Calm     85.2% 0 mm 0 W/m2
03:34 20.5 °C 18 °C 1007.7 hPa Calm     85.4% 0 mm 0 W/m2
03:39 20.5 °C 18.1 °C 1007.7 hPa Calm     86% 0 mm 0 W/m2
03:44 20.5 °C 18.1 °C 1007.7 hPa Calm     86% 0 mm 0 W/m2
03:49 20.5 °C 18.1 °C 1007.3 hPa Calm     86% 0 mm 0 W/m2
03:54 20.6 °C 18.1 °C 1007.3 hPa Calm     86% 0 mm 0 W/m2
03:59 20.6 °C 18.1 °C 1007.7 hPa Calm     86% 0 mm 0 W/m2
04:00 20.6 °C 18.1 °C 1007.7 hPa Calm     86% 0 mm 0 W/m2
04:09 20.6 °C 18.1 °C 1007.7 hPa Calm     86% 0 mm 0 W/m2
04:14 20.6 °C 18.1 °C 1007.7 hPa Calm     86% 0 mm 0 W/m2
04:19 20.6 °C 18.1 °C 1007.7 hPa Calm     86% 0 mm 0 W/m2
04:24 20.6 °C 18.2 °C 1007.7 hPa Calm     86% 0 mm 0 W/m2
04:29 20.6 °C 18.2 °C 1007.7 hPa Calm     86% 0 mm 0 W/m2
04:34 20.6 °C 18.1 °C 1007.7 hPa Calm     86% 0 mm 0 W/m2
04:39 20.6 °C 18.3 °C 1007.7 hPa Calm     86.8% 0 mm 0 W/m2
04:44 20.6 °C 18.3 °C 1007.7 hPa Calm     87% 0 mm 0 W/m2
04:49 20.6 °C 18.3 °C 1007.7 hPa Calm     87% 0 mm 0 W/m2
04:54 20.6 °C 18.3 °C 1007.7 hPa Calm     87% 0 mm 0 W/m2
04:59 20.6 °C 18.3 °C 1007.7 hPa Calm     87% 0 mm 0 W/m2
05:04 20.6 °C 18.3 °C 1007.7 hPa Calm     87% 0 mm 0 W/m2
05:09 20.6 °C 18.3 °C 1007.7 hPa Calm     87.2% 0 mm 0 W/m2
05:14 20.6 °C 18.4 °C 1007.7 hPa Calm     87.5% 0 mm 0 W/m2
05:19 20.5 °C 18.4 °C 1007.7 hPa Calm     88% 0 mm 0 W/m2
05:24 20.5 °C 18.4 °C 1007.7 hPa Calm     88% 0 mm 0 W/m2
05:29 20.5 °C 18.4 °C 1007.7 hPa Calm     88% 0 mm 0 W/m2
05:34 20.5 °C 18.4 °C 1007.7 hPa Calm     88% 0 mm 0 W/m2
05:39 20.5 °C 18.4 °C 1007.7 hPa Calm     88% 0 mm 0 W/m2
05:44 20.4 °C 18.4 °C 1007.7 hPa Calm     88% 0 mm 0 W/m2
05:49 20.4 °C 18.4 °C 1008 hPa Calm     88% 0 mm 0 W/m2
05:54 20.4 °C 18.4 °C 1008 hPa Calm     88% 0 mm 0 W/m2
05:59 20.4 °C 18.4 °C 1008.4 hPa Calm     88% 0 mm 0 W/m2
06:04 20.4 °C 18.4 °C 1008.4 hPa Calm     88.6% 0 mm 0 W/m2
06:09 20.3 °C 18.5 °C 1008.4 hPa Calm     89% 0 mm 0 W/m2
06:14 20.3 °C 18.4 °C 1008.4 hPa Calm     89% 0 mm 0 W/m2
06:19 20.3 °C 18.3 °C 1008.7 hPa Calm     88.4% 0 mm 0 W/m2
06:24 20.3 °C 18.2 °C 1008.7 hPa Calm     88% 0 mm 0 W/m2
06:29 20.3 °C 18.2 °C 1008.7 hPa Calm     88% 0 mm 0 W/m2
06:34 20.3 °C 18.2 °C 1008.7 hPa Calm     88% 0 mm 0 W/m2
06:39 20.2 °C 18.1 °C 1008.7 hPa Calm     87.8% 0 mm 5 W/m2
06:44 20.2 °C 17.9 °C 1009 hPa Calm     87% 0 mm 5 W/m2
06:49 20.2 °C 17.9 °C 1009 hPa Calm     87% 0 mm 7 W/m2
06:54 20.2 °C 18 °C 1009 hPa Calm     87% 0 mm 7 W/m2
06:59 20.3 °C 18.1 °C 1009 hPa Calm     87% 0 mm 7 W/m2
07:04 20.3 °C 18.1 °C 1009.4 hPa Calm     87% 0 mm 7 W/m2
07:09 20.3 °C 18.1 °C 1009.7 hPa Calm     87.3% 0 mm 12 W/m2
07:14 20.3 °C 18.2 °C 1009.7 hPa Calm     88% 0.25 mm 12 W/m2
07:19 20.3 °C 18.3 °C 1009.7 hPa Calm     88.3% 0.25 mm 12 W/m2
07:24 20.3 °C 18.4 °C 1009.7 hPa Calm     89% 0.25 mm 12 W/m2
07:29 20.2 °C 18.4 °C 1009.4 hPa Calm     89% 0.25 mm 11 W/m2
07:34 20.2 °C 18.4 °C 1009.4 hPa Calm     89.6% 0.25 mm 11 W/m2
07:39 20.2 °C 18.5 °C 1009.4 hPa Calm     90% 0.25 mm 12 W/m2
07:44 20.2 °C 18.5 °C 1009.4 hPa Calm     90% 0.25 mm 12 W/m2
07:49 20.1 °C 18.4 °C 1009.7 hPa Calm     90% 0.25 mm 11 W/m2
07:54 20.1 °C 18.4 °C 1009.7 hPa Calm     90% 0.25 mm 12 W/m2
07:59 20 °C 18.5 °C 1009.7 hPa Calm     90.9% 0.25 mm 12 W/m2
08:00 20 °C 18.5 °C 1009.7 hPa Calm     91% 0.25 mm 11 W/m2
08:09 19.9 °C 18.4 °C 1009.7 hPa Calm     91% 0.51 mm 19 W/m2
08:14 19.9 °C 18.4 °C 1009.7 hPa Calm     91% 0.76 mm 18 W/m2
08:19 19.9 °C 18.4 °C 1009.7 hPa Calm     91.1% 0.76 mm 16 W/m2
08:24 19.8 °C 18.4 °C 1009.7 hPa Calm     91.7% 0.76 mm 16 W/m2
08:29 19.8 °C 18.3 °C 1009.7 hPa Calm     91% 0.76 mm 16 W/m2
08:34 19.8 °C 18.4 °C 1009.7 hPa Calm     92% 0.76 mm 18 W/m2
08:39 19.7 °C 18.4 °C 1009.7 hPa Calm     92% 0.51 mm 26 W/m2
08:44 19.7 °C 18.4 °C 1009.7 hPa Calm     92% 0.51 mm 26 W/m2
08:49 19.7 °C 18.3 °C 1009.4 hPa Calm     92% 0.51 mm 28 W/m2
08:54 19.6 °C 18.2 °C 1009.7 hPa Calm     92% 0.76 mm 32 W/m2
08:59 19.6 °C 18.2 °C 1009.7 hPa Calm     92% 0.76 mm 26 W/m2
09:04 19.5 °C 18.2 °C 1009.7 hPa Calm     92% 0.76 mm 28 W/m2
09:05 19.5 °C 18.2 °C 1009.7 hPa Calm     92% 0.76 mm 30 W/m2
09:30 19.2 °C 17.7 °C 1009.7 hPa Calm     91% 0.51 mm 38 W/m2
10:00 19.2 °C 18 °C 1009.7 hPa Calm     93% 1.02 mm 45 W/m2
10:30 19 °C 17.8 °C 1009.7 hPa Calm     93% 1.78 mm 67 W/m2
11:00 19.2 °C 18.2 °C 1009.7 hPa Calm   4.8 km/h 94% 2.79 mm 69 W/m2
11:30 19.3 °C 18.3 °C 1009.7 hPa Calm   3.2 km/h 94% 2.29 mm 144 W/m2
12:04 19.4 °C 18.4 °C 1009.7 hPa Calm     94% 3.3 mm 79 W/m2
12:09 19.4 °C 18.4 °C 1009.7 hPa Calm     94% 3.56 mm 118 W/m2
12:14 19.4 °C 18.4 °C 1009.7 hPa Calm     94% 3.81 mm 118 W/m2
12:19 19.4 °C 18.4 °C 1010 hPa Calm     94% 3.81 mm 54 W/m2
12:24 19.4 °C 18.4 °C 1010 hPa Calm     94% 4.06 mm 79 W/m2
12:29 19.4 °C 18.4 °C 1009.7 hPa Calm     94% 4.57 mm 84 W/m2
12:34 19.4 °C 18.4 °C 1010 hPa Calm     94% 4.57 mm 42 W/m2
12:39 19.4 °C 18.4 °C 1010 hPa Calm     94% 4.83 mm 42 W/m2
12:44 19.4 °C 18.4 °C 1009.7 hPa NE 0.5 km/h 4.8 km/h 94% 6.1 mm 60 W/m2
12:49 19.3 °C 18.3 °C 1009.7 hPa NE 0.3 km/h 4.8 km/h 94% 6.86 mm 47 W/m2
12:54 19.3 °C 18.3 °C 1010 hPa North 1.1 km/h 6.4 km/h 94% 7.87 mm 42 W/m2
12:59 19.3 °C 18.3 °C 1010 hPa North 0.2 km/h 6.4 km/h 94% 11.18 mm 49 W/m2
13:04 19.3 °C 18.3 °C 1010.4 hPa NE 2.9 km/h 8 km/h 94% 11.18 mm 90 W/m2
13:09 19.1 °C 18.1 °C 1009.4 hPa ENE 2.1 km/h 8 km/h 94% 12.19 mm 146 W/m2
13:14 19.1 °C 18.1 °C 1009 hPa NE 1 km/h 8 km/h 94% 12.45 mm 151 W/m2
13:19 19 °C 18 °C 1009 hPa ENE 0.8 km/h 8 km/h 94% 12.45 mm 199 W/m2
13:24 18.9 °C 18.1 °C 1009 hPa ENE 0.3 km/h 8 km/h 94.4% 12.45 mm 193 W/m2
13:29 18.9 °C 18.1 °C 1009 hPa ENE 1.3 km/h 9.7 km/h 94.9% 12.45 mm 151 W/m2
13:34 18.9 °C 18.1 °C 1009.4 hPa NE 0.6 km/h 9.7 km/h 94.7% 12.45 mm 163 W/m2
13:39 18.9 °C 18.1 °C 1009.4 hPa North 1.3 km/h 8 km/h 95% 12.45 mm 137 W/m2
13:44 19.1 °C 18.3 °C 1009.4 hPa NNE 0.5 km/h 8 km/h 95% 12.45 mm 144 W/m2
13:49 19.3 °C 18.4 °C 1009.4 hPa NNW 3.7 km/h 12.9 km/h 95% 12.45 mm 139 W/m2
13:54 19.2 °C 18.4 °C 1010 hPa WNW 4.8 km/h 12.9 km/h 95% 12.7 mm 83 W/m2
13:59 19.1 °C 18.2 °C 1010 hPa NNE 1.8 km/h 12.9 km/h 95% 12.95 mm 98 W/m2
14:04 18.9 °C 18.1 °C 1009.4 hPa ENE 1.8 km/h 12.9 km/h 95% 12.95 mm 95 W/m2
14:09 18.9 °C 18.1 °C 1009.4 hPa ENE 0.5 km/h 9.7 km/h 95% 5.59 mm 83 W/m2
14:14 18.9 °C 18.1 °C 1009.4 hPa NNE 0.5 km/h 9.7 km/h 95% 5.59 mm 77 W/m2
14:19 18.9 °C 18.1 °C 1009.7 hPa NNW 0.3 km/h 9.7 km/h 95% 5.84 mm 74 W/m2
14:24 18.9 °C 18.1 °C 1009.7 hPa NNW 1.3 km/h 9.7 km/h 95% 6.1 mm 40 W/m2
14:29 18.9 °C 18.1 °C 1009.7 hPa NNW 0.3 km/h 9.7 km/h 95% 6.86 mm 44 W/m2
14:34 18.8 °C 18.1 °C 1009.4 hPa NNW 0.6 km/h 9.7 km/h 95% 6.86 mm 53 W/m2
14:39 18.8 °C 18 °C 1009.4 hPa NNW 0.8 km/h 6.4 km/h 95% 3.3 mm 56 W/m2
14:44 18.9 °C 18.1 °C 1009.4 hPa NNW 0.2 km/h 6.4 km/h 95% 3.56 mm 58 W/m2
14:49 18.9 °C 18.1 °C 1009.4 hPa North 1.6 km/h 8 km/h 95% 3.81 mm 47 W/m2
14:54 18.8 °C 18.1 °C 1009.4 hPa ENE 1 km/h 8 km/h 95% 3.81 mm 37 W/m2
14:59 18.8 °C 17.9 °C 1009.4 hPa ENE 1.1 km/h 8 km/h 95% 4.32 mm 37 W/m2
15:04 18.8 °C 17.9 °C 1009.4 hPa ENE 1.1 km/h 8 km/h 95% 4.83 mm 47 W/m2
15:09 18.8 °C 17.9 °C 1009.4 hPa ENE 1 km/h 6.4 km/h 95% 5.33 mm 40 W/m2
15:14 18.8 °C 18.1 °C 1009.4 hPa Calm   6.4 km/h 95% 5.59 mm 47 W/m2
15:19 18.9 °C 18.1 °C 1008.7 hPa Calm   6.4 km/h 95% 6.1 mm 53 W/m2
15:24 18.9 °C 18.2 °C 1008.7 hPa NNE 1.9 km/h 8 km/h 95% 6.35 mm 49 W/m2
15:29 18.9 °C 18.1 °C 1008.7 hPa NE 0.3 km/h 8 km/h 95% 6.86 mm 26 W/m2
15:34 18.9 °C 18.1 °C 1009 hPa NE 0.2 km/h 8 km/h 95% 6.86 mm 21 W/m2
15:39 18.9 °C 18.1 °C 1009 hPa NNE 0.8 km/h 8 km/h 95% 7.11 mm 21 W/m2
15:44 18.9 °C 18.1 °C 1009 hPa NE 1.8 km/h 8 km/h 95% 8.13 mm 19 W/m2
15:49 18.9 °C 18.1 °C 1008.7 hPa ENE 0.2 km/h 8 km/h 95% 8.89 mm 26 W/m2
15:54 18.9 °C 18.1 °C 1009 hPa NNE 1.4 km/h 8 km/h 95.2% 9.65 mm 18 W/m2
15:59 18.9 °C 18.3 °C 1008.7 hPa Calm   8 km/h 96% 10.41 mm 26 W/m2
16:09 19 °C 18.3 °C 1009 hPa NW 2.4 km/h 8 km/h 96% 11.43 mm 37 W/m2
16:14 19.1 °C 18.4 °C 1009 hPa North 3.2 km/h 16.1 km/h 96% 11.68 mm 44 W/m2
16:19 18.9 °C 18.3 °C 1009 hPa WNW 2.7 km/h 16.1 km/h 96% 11.94 mm 19 W/m2
16:24 18.9 °C 18.2 °C 1008.4 hPa ENE 8.5 km/h 19.3 km/h 96% 12.95 mm 35 W/m2
16:29 18.8 °C 18.1 °C 1008 hPa NE 1.9 km/h 19.3 km/h 96% 13.72 mm 28 W/m2
16:34 18.8 °C 18.2 °C 1008 hPa NW 1.1 km/h 19.3 km/h 96% 13.72 mm 9 W/m2
16:39 18.8 °C 18.2 °C 1008 hPa NE 0.8 km/h 8 km/h 96% 8.89 mm 11 W/m2
16:44 18.8 °C 18.1 °C 1008 hPa NE 4 km/h 11.3 km/h 96% 8.89 mm 18 W/m2
16:49 18.8 °C 18.1 °C 1008 hPa NE 1.3 km/h 11.3 km/h 96% 8.89 mm 19 W/m2
16:54 18.8 °C 18.1 °C 1008 hPa NW 1.8 km/h 17.7 km/h 96% 8.89 mm 18 W/m2
16:59 18.8 °C 18.1 °C 1008 hPa NW 0.6 km/h 17.7 km/h 96% 8.89 mm 11 W/m2
17:04 18.8 °C 18.2 °C 1008 hPa NW 1 km/h 17.7 km/h 96% 8.89 mm 25 W/m2
17:09 18.8 °C 18.1 °C 1008 hPa NNE 0.3 km/h 14.5 km/h 96% 0.25 mm 25 W/m2
17:14 18.8 °C 18.2 °C 1008 hPa ENE 0.8 km/h 14.5 km/h 96% 0.51 mm 23 W/m2
17:19 18.8 °C 18.2 °C 1007.7 hPa North 0.5 km/h 14.5 km/h 96% 0.51 mm 14 W/m2
17:24 18.8 °C 18.1 °C 1008 hPa NW 2.7 km/h 14.5 km/h 96% 0.51 mm 11 W/m2
17:29 18.8 °C 18.1 °C 1008.7 hPa WNW 2.6 km/h 14.5 km/h 96% 0.51 mm 5 W/m2
17:34 18.8 °C 18.1 °C 1008.7 hPa WNW 4 km/h 14.5 km/h 96% 1.78 mm 0 W/m2
17:39 18.7 °C 18.1 °C 1008.7 hPa NW 2.7 km/h 16.1 km/h 96% 2.54 mm 18 W/m2
17:44 18.7 °C 18 °C 1008.4 hPa North 1.1 km/h 16.1 km/h 96% 2.54 mm 19 W/m2
17:49 18.6 °C 17.9 °C 1008.4 hPa NE 2.9 km/h 16.1 km/h 96% 2.54 mm 9 W/m2
17:54 18.5 °C 17.8 °C 1008.4 hPa NE 1.3 km/h 16.1 km/h 96% 2.79 mm 0 W/m2
17:59 18.5 °C 17.8 °C 1008.4 hPa North 0.8 km/h 16.1 km/h 96% 3.05 mm 5 W/m2
18:04 18.5 °C 17.8 °C 1008.4 hPa ENE 3.7 km/h 16.1 km/h 96% 3.05 mm 11 W/m2
18:09 18.4 °C 17.8 °C 1008 hPa ENE 1.8 km/h 16.1 km/h 96% 2.79 mm 11 W/m2
18:14 18.4 °C 17.8 °C 1008 hPa North 1.4 km/h 16.1 km/h 96% 2.79 mm 5 W/m2
18:19 18.4 °C 17.8 °C 1008 hPa North 1 km/h 16.1 km/h 96% 2.79 mm 0 W/m2
18:24 18.4 °C 17.7 °C 1008 hPa NNW 0.2 km/h 16.1 km/h 96% 2.79 mm 0 W/m2
18:29 18.3 °C 17.7 °C 1008 hPa NE 1.8 km/h 16.1 km/h 96% 2.79 mm 0 W/m2
18:34 18.3 °C 17.7 °C 1008 hPa North 0.6 km/h 16.1 km/h 96% 2.79 mm 0 W/m2
18:39 18.3 °C 17.6 °C 1007.3 hPa NNW 1.8 km/h 11.3 km/h 96% 2.54 mm 0 W/m2
18:44 18.2 °C 17.6 °C 1007.3 hPa ENE 1.4 km/h 11.3 km/h 96% 2.79 mm 0 W/m2
18:49 18.2 °C 17.6 °C 1007.7 hPa NNW 1.9 km/h 11.3 km/h 96% 4.57 mm 0 W/m2
18:54 18.2 °C 17.5 °C 1007.7 hPa NW 1.8 km/h 14.5 km/h 96% 5.84 mm 0 W/m2
18:59 18.1 °C 17.4 °C 1007.7 hPa NW 3.9 km/h 17.7 km/h 96% 6.35 mm 0 W/m2
19:04 18.1 °C 17.4 °C 1007.7 hPa NNW 3.7 km/h 17.7 km/h 96% 6.6 mm 0 W/m2
19:09 18.1 °C 17.4 °C 1007.7 hPa ENE 3.4 km/h 14.5 km/h 96% 6.1 mm 0 W/m2
19:14 18 °C 17.3 °C 1007.7 hPa NE 2.6 km/h 14.5 km/h 96% 6.6 mm 0 W/m2
19:19 18 °C 17.3 °C 1007.7 hPa NW 1.6 km/h 14.5 km/h 96% 7.11 mm 0 W/m2
19:24 17.9 °C 17.3 °C 1007.3 hPa NNW 0.8 km/h 14.5 km/h 96% 7.37 mm 0 W/m2
19:29 17.9 °C 17.3 °C 1007.3 hPa North 2.1 km/h 14.5 km/h 96% 7.62 mm 0 W/m2
19:34 17.9 °C 17.3 °C 1007.3 hPa NNW 1.3 km/h 14.5 km/h 96% 8.38 mm 0 W/m2
19:39 17.9 °C 17.2 °C 1007.3 hPa NNE 2.6 km/h 11.3 km/h 96% 9.14 mm 0 W/m2
19:44 17.8 °C 17.2 °C 1007.3 hPa North 2.1 km/h 11.3 km/h 96% 9.4 mm 0 W/m2
19:49 17.8 °C 17.2 °C 1007.7 hPa NNE 2.6 km/h 12.9 km/h 96% 9.91 mm 0 W/m2
19:54 17.8 °C 17.1 °C 1007.7 hPa ENE 0.8 km/h 12.9 km/h 96% 10.16 mm 0 W/m2
19:59 17.8 °C 17.1 °C 1008 hPa ENE 2.3 km/h 12.9 km/h 96% 10.67 mm 0 W/m2
20:00 17.7 °C 17.1 °C 1008 hPa Calm   12.9 km/h 96% 10.67 mm 0 W/m2
20:09 17.7 °C 17.1 °C 1007.7 hPa East 0.8 km/h 8 km/h 96% 7.87 mm 0 W/m2
20:14 17.7 °C 17 °C 1007.7 hPa NE 4.5 km/h 14.5 km/h 96% 8.89 mm 0 W/m2
20:19 17.7 °C 17 °C 1007.7 hPa ENE 6.8 km/h 19.3 km/h 96% 10.16 mm 0 W/m2
20:24 17.6 °C 16.9 °C 1007.3 hPa ENE 8.7 km/h 27.4 km/h 96% 11.18 mm 0 W/m2
20:29 17.6 °C 16.9 °C 1007.3 hPa NE 4 km/h 27.4 km/h 96% 11.94 mm 0 W/m2
20:34 17.4 °C 16.8 °C 1007 hPa NE 8.4 km/h 27.4 km/h 96% 11.94 mm 0 W/m2
20:39 17.3 °C 16.7 °C 1006.7 hPa ESE 4.2 km/h 22.5 km/h 96% 9.14 mm 0 W/m2
20:44 17.3 °C 16.7 °C 1006.3 hPa ENE 3.4 km/h 22.5 km/h 96% 9.91 mm 0 W/m2
20:49 17.2 °C 16.6 °C 1006.3 hPa ENE 5.6 km/h 22.5 km/h 96% 10.41 mm 0 W/m2
20:54 17.2 °C 16.6 °C 1006.3 hPa ENE 6.3 km/h 22.5 km/h 96% 10.92 mm 0 W/m2
20:59 17.1 °C 16.5 °C 1006.3 hPa ENE 5.6 km/h 22.5 km/h 96% 11.94 mm 0 W/m2
21:04 17.1 °C 16.4 °C 1006.3 hPa ENE 8.7 km/h 22.5 km/h 96% 11.94 mm 0 W/m2
21:09 17.1 °C 16.4 °C 1006.3 hPa ENE 8 km/h 20.9 km/h 96% 11.18 mm 0 W/m2
21:14 17.1 °C 16.4 °C 1006.3 hPa NE 7.6 km/h 20.9 km/h 96% 11.94 mm 0 W/m2
21:19 17.1 °C 16.4 °C 1006.3 hPa ENE 7.6 km/h 24.1 km/h 96% 12.7 mm 0 W/m2
21:24 17.1 °C 16.4 °C 1006.3 hPa NE 6.8 km/h 24.1 km/h 96% 13.46 mm 0 W/m2
21:28 17.1 °C 16.4 °C 1006.3 hPa ENE 5 km/h 24.1 km/h 96% 14.22 mm 0 W/m2
21:30 17.1 °C 16.4 °C 1006.3 hPa ENE 6.4 km/h 24.1 km/h 96% 5.33 mm 0 W/m2
22:00 17 °C 16.5 °C 1005.3 hPa ENE 6.4 km/h 25.7 km/h 97% 6.6 mm 0 W/m2
22:44 16.8 °C 16.2 °C 1004.3 hPa East 9.8 km/h 24.1 km/h 96% 20.32 mm 0 W/m2
22:49 16.8 °C 16.2 °C 1003.9 hPa ENE 11.6 km/h 25.7 km/h 96% 21.08 mm 0 W/m2
22:54 16.8 °C 16.2 °C 1003.9 hPa NE 12.1 km/h 29 km/h 96.7% 21.84 mm 0 W/m2
22:59 16.7 °C 16.3 °C 1003.9 hPa NE 12.4 km/h 30.6 km/h 97% 22.61 mm 0 W/m2
23:04 16.7 °C 16.2 °C 1003.6 hPa NE 12.2 km/h 30.6 km/h 97% 22.61 mm 0 W/m2
23:09 16.7 °C 16.2 °C 1003.3 hPa ENE 9.3 km/h 29 km/h 97% 23.11 mm 0 W/m2
23:14 16.7 °C 16.2 °C 1003.3 hPa NE 9.7 km/h 29 km/h 97% 24.64 mm 0 W/m2
23:19 16.6 °C 16.2 °C 1003.3 hPa ENE 7.7 km/h 29 km/h 97% 25.91 mm 0 W/m2
23:24 16.6 °C 16.1 °C 1003.3 hPa ENE 5.5 km/h 29 km/h 97% 26.67 mm 0 W/m2
23:29 16.6 °C 16.1 °C 1002.6 hPa ENE 10.3 km/h 29 km/h 97% 27.94 mm 0 W/m2
23:34 16.6 °C 16 °C 1002.6 hPa ENE 6 km/h 29 km/h 96.4% 27.94 mm 0 W/m2
23:39 16.5 °C 15.9 °C 1002.3 hPa ENE 7.7 km/h 25.7 km/h 96.1% 11.18 mm 0 W/m2
23:44 16.5 °C 16 °C 1002.3 hPa ENE 8 km/h 25.7 km/h 97% 13.97 mm 0 W/m2
23:49 16.5 °C 16 °C 1002.6 hPa ENE 8 km/h 25.7 km/h 97% 16.51 mm 0 W/m2
23:54 16.5 °C 16 °C 1002.3 hPa ENE 8.5 km/h 32.2 km/h 97% 19.3 mm 0 W/m2
23:58 16.4 °C 16 °C 1002.3 hPa NE 10.5 km/h 32.2 km/h 97% 21.59 mm 0 W/m2
Hartford County Weather
Compliments of Weather Underground - 2 mb